Daytona Beach, FL

4:25 PM EST on December 10, 2016 (GMT -0500)
Daytona State College | | Change Station

Elev 0 ft 29.20 °N, 81.05 °W | Updated 5 minutes ago

Mostly Cloudy
Mostly Cloudy
65.9 °F
Feels Like 65.9 °F
N
6.0
Wind Variable Wind from SSE
Gusts 16.0 mph

Today
High -- | Low -- °F
--% Chance of Precip.
Yesterday
High -- | Low -- °F
Precip. -- in
Pressure 30.33 in
Visibility 10.0 miles
Clouds Few 2800 ft
Mostly Cloudy 3700 ft
Mostly Cloudy 5500 ft
Dew Point 56 °F
Humidity 71%
Rainfall 0.00 in
Snow Depth Not available.
7:07 AM 5:26 PM
Waxing Gibbous, 86% visible
METAR KDAB 102053Z 04012KT 10SM FEW028 BKN037 BKN055 19/11 A3033 RMK AO2 SLP269 T01890106 55005 $
Pressure 30.33 in
Visibility 10.0 miles
Clouds Few 2800 ft
Mostly Cloudy 3700 ft
Mostly Cloudy 5500 ft
Dew Point 56 °F
Humidity 71%
Rainfall 0.00 in
Snow Depth Not available.
7:07 AM 5:26 PM
Waxing Gibbous, 86% visible
METAR KDAB 102053Z 04012KT 10SM FEW028 BKN037 BKN055 19/11 A3033 RMK AO2 SLP269 T01890106 55005 $

10-Day Weather Forecast

Almanac

Astronomy

Dec. 10, 2016 Rise Set
Actual Time
Civil Twilight
Nautical Twilight
Astronomical Twilight
Moon
Length of Visible Light
Length of Day
Tomorrow will be .
, % of the Moon is Illuminated

Today's Extremes

State Highs State Lows

Community

WunderPhotos

Upload Photos

1,956,664 photos uploaded!

WunderBlog® & News

Nearby

Air Quality

  Air Quality AQ Index Pollutant
Not available.

Snow Depth

Station Depth Elevation

Earthquake Activity

City Distance Mag. Time & Date
Minimum magnitude displayed is 2.5.

Coastal Water Temperatures

Place Temperature

Stations

Nearby Weather Stations

Station Location Temp. Windchill Dew Point Humidity Wind Precip. Elev Updated Type
                   

Watches & Warnings

There are currently no watches in effect.